createdAt,value
2023-03-29T00:00:14.410Z,96472.72
2023-03-29T00:01:35.075Z,96477.09
2023-03-29T00:02:41.283Z,96486.41
2023-03-29T00:03:45.906Z,96470.41
2023-03-29T00:04:53.607Z,96475.63
2023-03-29T00:06:03.169Z,96474.03
2023-03-29T00:07:07.908Z,96473.19
2023-03-29T00:08:14.668Z,96469.97
2023-03-29T00:09:22.239Z,96470.94
2023-03-29T00:10:24.368Z,96463.25
2023-03-29T00:11:29.473Z,96460.88
2023-03-29T00:12:31.907Z,96452.50
2023-03-29T00:13:36.959Z,96437.94
2023-03-29T00:14:39.073Z,96438.91
2023-03-29T00:15:45.089Z,96434.72
2023-03-29T00:16:47.265Z,96440.66
2023-03-29T00:17:52.370Z,96428.75
2023-03-29T00:18:54.545Z,96422.03
2023-03-29T00:19:59.334Z,96440.09
2023-03-29T00:21:01.700Z,96436.56
2023-03-29T00:22:07.486Z,96435.88
2023-03-29T00:23:09.657Z,96429.78
2023-03-29T00:24:14.327Z,96431.56
2023-03-29T00:25:19.130Z,96429.06
2023-03-29T00:26:24.137Z,96418.84
2023-03-29T00:27:26.324Z,96421.47
2023-03-29T00:28:31.489Z,96420.59
2023-03-29T00:29:34.066Z,96433.44
2023-03-29T00:30:38.748Z,96440.19
2023-03-29T00:31:40.955Z,96437.53
2023-03-29T00:32:46.251Z,96424.84
2023-03-29T00:33:48.478Z,96413.75
2023-03-29T00:34:53.569Z,96416.38
2023-03-29T00:35:55.721Z,96419.75
2023-03-29T00:37:00.527Z,96424.00
2023-03-29T00:38:02.638Z,96427.56
2023-03-29T00:39:07.521Z,96429.22
2023-03-29T00:40:12.221Z,96425.91
2023-03-29T00:41:19.504Z,96424.31
2023-03-29T00:42:21.679Z,96417.41
2023-03-29T00:43:26.846Z,96430.34
2023-03-29T00:44:58.462Z,96431.19
2023-03-29T00:46:03.212Z,96436.38
2023-03-29T00:47:05.399Z,96426.19
2023-03-29T00:48:13.756Z,96424.50
2023-03-29T00:49:15.935Z,96428.81
2023-03-29T00:50:26.449Z,96426.25
2023-03-29T00:51:34.432Z,96418.53
2023-03-29T00:52:39.847Z,96421.19
2023-03-29T00:53:48.574Z,96425.44
2023-03-29T00:54:58.416Z,96432.34
2023-03-29T00:56:04.571Z,96427.22
2023-03-29T00:57:13.845Z,96423.00
2023-03-29T00:58:26.551Z,96428.13
2023-03-29T00:59:33.032Z,96417.84
2023-03-29T01:00:40.940Z,96417.84
2023-03-29T01:01:46.911Z,96413.63
2023-03-29T01:02:55.994Z,96428.19
2023-03-29T01:04:03.485Z,96423.88
2023-03-29T01:05:12.249Z,96426.50
2023-03-29T01:06:17.077Z,96424.78
2023-03-29T01:07:26.181Z,96425.69
2023-03-29T01:08:32.861Z,96412.84
2023-03-29T01:09:41.972Z,96407.75
2023-03-29T01:10:50.275Z,96409.47
2023-03-29T01:11:57.690Z,96406.06
2023-03-29T01:13:07.038Z,96412.97
2023-03-29T01:14:18.490Z,96401.78
2023-03-29T01:15:25.728Z,96400.94
2023-03-29T01:16:33.153Z,96400.16
2023-03-29T01:17:35.591Z,96404.47
2023-03-29T01:18:42.138Z,96401.91
2023-03-29T01:19:50.317Z,96399.28
2023-03-29T01:21:17.112Z,96396.44
2023-03-29T01:22:29.070Z,96399.06
2023-03-29T01:23:53.936Z,96394.84
2023-03-29T01:25:07.692Z,96392.25
2023-03-29T01:26:19.912Z,96387.19
2023-03-29T01:27:47.411Z,96393.31
2023-03-29T01:28:53.281Z,96395.03
2023-03-29T01:30:03.615Z,96389.91
2023-03-29T01:31:11.384Z,96380.53
2023-03-29T01:32:20.027Z,96383.16
2023-03-29T01:33:25.914Z,96375.34
2023-03-29T01:34:37.875Z,96363.34
2023-03-29T01:35:44.978Z,96359.91
2023-03-29T01:37:00.509Z,96361.63
2023-03-29T01:38:08.891Z,96363.28
2023-03-29T01:39:13.638Z,96359.06
2023-03-29T01:40:15.974Z,96354.59
2023-03-29T01:41:20.682Z,96351.97
2023-03-29T01:42:46.801Z,96353.63
2023-03-29T01:43:54.937Z,96352.88
2023-03-29T01:45:10.277Z,96343.59
2023-03-29T01:46:21.858Z,96338.50
2023-03-29T01:47:31.460Z,96334.25
2023-03-29T01:48:53.322Z,96331.75
2023-03-29T01:50:07.053Z,96330.09
2023-03-29T01:51:16.355Z,96326.72
2023-03-29T01:52:25.954Z,96324.94
2023-03-29T01:53:36.847Z,96325.00
2023-03-29T01:54:43.603Z,96322.50
2023-03-29T01:55:53.196Z,96324.94
2023-03-29T01:56:57.499Z,96331.78
2023-03-29T01:58:08.598Z,96328.28
2023-03-29T01:59:14.047Z,96325.81
2023-03-29T02:00:22.504Z,96324.78
2023-03-29T02:01:28.548Z,96325.63
2023-03-29T02:02:34.741Z,96330.59
2023-03-29T02:03:42.696Z,96327.91
2023-03-29T02:04:52.432Z,96329.69
2023-03-29T02:05:55.817Z,96329.63
2023-03-29T02:07:02.719Z,96323.38
2023-03-29T02:08:08.266Z,96327.84
2023-03-29T02:09:13.005Z,96329.63
2023-03-29T02:10:17.890Z,96333.09
2023-03-29T02:11:23.525Z,96336.56
2023-03-29T02:12:25.812Z,96323.50
2023-03-29T02:13:33.189Z,96328.72
2023-03-29T02:14:35.755Z,96328.78
2023-03-29T02:15:40.632Z,96335.81
2023-03-29T02:16:42.853Z,96340.19
2023-03-29T02:17:48.271Z,96332.50
2023-03-29T02:18:53.051Z,96335.88
2023-03-29T02:20:08.202Z,96325.56
2023-03-29T02:21:16.511Z,96325.53
2023-03-29T02:22:28.790Z,96323.72
2023-03-29T02:23:35.384Z,96326.22
2023-03-29T02:24:42.548Z,96334.84
2023-03-29T02:25:46.740Z,96330.69
2023-03-29T02:26:52.847Z,96315.28
2023-03-29T02:27:56.115Z,96310.00
2023-03-29T02:29:03.784Z,96309.19
2023-03-29T02:30:08.944Z,96309.16
2023-03-29T02:31:19.238Z,96299.59
2023-03-29T02:32:27.598Z,96304.81
2023-03-29T02:33:37.627Z,96291.97
2023-03-29T02:34:47.865Z,96292.88
2023-03-29T02:35:57.393Z,96290.38
2023-03-29T02:37:03.479Z,96286.16
2023-03-29T02:38:12.429Z,96281.00
2023-03-29T02:39:16.597Z,96281.16
2023-03-29T02:40:22.530Z,96273.34
2023-03-29T02:41:26.232Z,96275.03
2023-03-29T02:42:32.049Z,96271.63
2023-03-29T02:43:36.011Z,96273.34
2023-03-29T02:44:45.246Z,96265.78
2023-03-29T02:46:00.772Z,96270.91
2023-03-29T02:47:10.716Z,96276.19
2023-03-29T02:48:17.557Z,96268.56
2023-03-29T02:49:22.550Z,96274.59
2023-03-29T02:50:27.593Z,96274.59
2023-03-29T02:51:36.272Z,96271.22
2023-03-29T02:52:42.932Z,96268.63
2023-03-29T02:53:52.684Z,96267.81
2023-03-29T02:54:56.083Z,96268.47
2023-03-29T02:56:02.393Z,96265.84
2023-03-29T02:57:06.655Z,96265.94
2023-03-29T02:58:13.604Z,96257.34
2023-03-29T02:59:17.298Z,96263.44
2023-03-29T03:00:24.882Z,96255.75
2023-03-29T03:01:27.065Z,96255.03
2023-03-29T03:02:31.768Z,96253.44
2023-03-29T03:03:34.138Z,96265.47
2023-03-29T03:04:38.935Z,96257.84
2023-03-29T03:05:41.199Z,96254.38
2023-03-29T03:06:45.932Z,96250.94
2023-03-29T03:07:47.982Z,96253.47
2023-03-29T03:08:52.899Z,96251.00
2023-03-29T03:09:54.967Z,96250.16
2023-03-29T03:10:59.943Z,96251.94
2023-03-29T03:12:02.258Z,96247.75
2023-03-29T03:13:07.337Z,96250.38
2023-03-29T03:14:09.452Z,96256.47
2023-03-29T03:15:14.868Z,96258.25
2023-03-29T03:16:19.627Z,96256.59
2023-03-29T03:17:25.476Z,96257.38
2023-03-29T03:18:27.884Z,96259.13
2023-03-29T03:19:32.553Z,96258.41
2023-03-29T03:20:34.944Z,96253.28
2023-03-29T03:21:39.791Z,96253.34
2023-03-29T03:22:44.125Z,96251.63
2023-03-29T03:23:48.863Z,96249.06
2023-03-29T03:24:51.056Z,96243.78
2023-03-29T03:25:56.400Z,96248.09
2023-03-29T03:26:58.499Z,96248.09
2023-03-29T03:28:03.159Z,96235.22
2023-03-29T03:29:05.543Z,96239.44
2023-03-29T03:30:12.009Z,96242.75
2023-03-29T03:31:14.219Z,96239.19
2023-03-29T03:32:21.684Z,96247.75
2023-03-29T03:33:24.307Z,96243.50
2023-03-29T03:34:29.534Z,96238.38
2023-03-29T03:35:35.091Z,96242.59
2023-03-29T03:36:40.002Z,96234.00
2023-03-29T03:37:45.470Z,96239.09
2023-03-29T03:38:47.869Z,96233.88
2023-03-29T03:39:52.556Z,96228.72
2023-03-29T03:40:55.253Z,96229.44
2023-03-29T03:41:59.927Z,96227.66
2023-03-29T03:43:04.552Z,96223.31
2023-03-29T03:44:06.743Z,96219.78
2023-03-29T03:45:12.783Z,96215.22
2023-03-29T03:46:15.101Z,96215.81
2023-03-29T03:47:22.925Z,96216.63
2023-03-29T03:48:25.726Z,96214.03
2023-03-29T03:49:30.695Z,96213.91
2023-03-29T03:50:33.688Z,96213.97
2023-03-29T03:51:38.312Z,96205.44
2023-03-29T03:52:40.399Z,96210.50
2023-03-29T03:53:45.067Z,96209.69
2023-03-29T03:54:48.332Z,96211.91
2023-03-29T03:55:54.449Z,96215.38
2023-03-29T03:56:59.196Z,96216.22
2023-03-29T03:58:01.308Z,96214.47
2023-03-29T03:59:06.025Z,96208.44
2023-03-29T04:00:19.924Z,96214.44
2023-03-29T04:01:24.747Z,96215.06
2023-03-29T04:02:29.445Z,96214.88
2023-03-29T04:03:34.671Z,96216.53
2023-03-29T04:04:37.118Z,96217.28
2023-03-29T04:05:42.112Z,96218.09
2023-03-29T04:06:44.381Z,96214.66
2023-03-29T04:07:49.118Z,96216.34
2023-03-29T04:08:51.835Z,96217.22
2023-03-29T04:09:56.489Z,96220.69
2023-03-29T04:11:00.456Z,96215.53
2023-03-29T04:12:05.268Z,96207.84
2023-03-29T04:13:07.374Z,96208.69
2023-03-29T04:14:12.054Z,96209.50
2023-03-29T04:15:14.245Z,96212.06
2023-03-29T04:16:18.913Z,96212.88
2023-03-29T04:17:21.511Z,96212.72
2023-03-29T04:21:54.445Z,96214.75
2023-03-29T04:22:56.528Z,96213.06
2023-03-29T04:24:01.160Z,96211.34
2023-03-29T04:25:03.289Z,96208.69
2023-03-29T04:27:23.229Z,96208.75
2023-03-29T04:28:25.312Z,96209.56
2023-03-29T04:29:29.998Z,96211.25
2023-03-29T04:30:32.073Z,96212.00
2023-03-29T04:31:36.761Z,96203.44
2023-03-29T04:32:39.233Z,96210.16
2023-03-29T04:33:46.934Z,96215.28
2023-03-29T04:34:49.036Z,96212.72
2023-03-29T04:35:53.705Z,96225.47
2023-03-29T04:36:59.137Z,96215.91
2023-03-29T04:38:04.567Z,96217.66
2023-03-29T04:39:08.070Z,96224.44
2023-03-29T04:40:15.122Z,96229.69
2023-03-29T04:41:17.254Z,96227.19
2023-03-29T04:42:21.922Z,96233.19
2023-03-29T04:43:24.068Z,96228.84
2023-03-29T04:44:29.264Z,96229.75
2023-03-29T04:45:31.596Z,96234.00
2023-03-29T04:46:38.902Z,96227.84
2023-03-29T04:47:43.722Z,96229.44
2023-03-29T04:48:45.793Z,96224.28
2023-03-29T04:49:50.473Z,96222.44
2023-03-29T04:50:54.604Z,96231.06
2023-03-29T04:52:01.794Z,96230.97
2023-03-29T04:53:03.857Z,96229.97
2023-03-29T04:54:08.644Z,96229.84
2023-03-29T04:55:11.847Z,96235.94
2023-03-29T04:56:16.610Z,96231.78
2023-03-29T04:57:18.729Z,96232.69
2023-03-29T04:58:26.121Z,96236.09
2023-03-29T04:59:30.808Z,96235.19
2023-03-29T05:00:35.481Z,96233.56
2023-03-29T05:01:37.830Z,96240.41
2023-03-29T05:02:42.657Z,96233.56
2023-03-29T05:03:44.991Z,96227.50
2023-03-29T05:04:50.635Z,96234.09
2023-03-29T05:05:53.598Z,96232.47
2023-03-29T05:07:02.370Z,96228.97
2023-03-29T05:08:04.840Z,96226.38
2023-03-29T05:09:10.733Z,96231.38
2023-03-29T05:10:12.808Z,96225.47
2023-03-29T05:11:17.720Z,96223.69
2023-03-29T05:12:19.783Z,96229.59
2023-03-29T05:13:24.409Z,96229.69
2023-03-29T05:14:26.402Z,96232.13
2023-03-29T05:15:31.252Z,96235.34
2023-03-29T05:16:34.734Z,96232.78
2023-03-29T05:17:39.870Z,96237.06
2023-03-29T05:18:42.055Z,96229.88
2023-03-29T05:19:46.977Z,96225.59
2023-03-29T05:20:51.287Z,96232.44
2023-03-29T05:21:55.947Z,96233.38
2023-03-29T05:23:00.620Z,96233.38
2023-03-29T05:24:06.214Z,96228.25
2023-03-29T05:25:13.542Z,96232.53
2023-03-29T05:26:15.773Z,96230.66
2023-03-29T05:27:21.200Z,96232.25
2023-03-29T05:28:23.357Z,96233.94
2023-03-29T05:29:28.125Z,96229.50
2023-03-29T05:30:30.192Z,96230.94
2023-03-29T05:31:35.426Z,96224.97
2023-03-29T05:32:38.312Z,96219.91
2023-03-29T05:33:43.072Z,96230.13
2023-03-29T05:34:45.332Z,96226.72
2023-03-29T05:35:50.006Z,96228.34
2023-03-29T05:36:52.129Z,96217.19
2023-03-29T05:37:56.766Z,96220.56
2023-03-29T05:39:02.079Z,96227.47
2023-03-29T05:40:10.306Z,96219.63
2023-03-29T05:41:13.267Z,96228.09
2023-03-29T05:42:22.508Z,96219.63
2023-03-29T05:43:25.004Z,96217.03
2023-03-29T05:44:29.678Z,96210.13
2023-03-29T05:45:33.505Z,96215.69
2023-03-29T05:46:38.876Z,96221.59
2023-03-29T05:47:40.946Z,96212.09
2023-03-29T05:48:45.630Z,96215.47
2023-03-29T05:49:47.647Z,96208.69
2023-03-29T05:50:53.652Z,96212.06
2023-03-29T05:51:57.305Z,96208.63
2023-03-29T05:53:01.965Z,96209.41
2023-03-29T05:54:07.174Z,96212.59
2023-03-29T05:55:13.025Z,96202.28
2023-03-29T05:56:16.583Z,96206.69
2023-03-29T05:57:21.265Z,96206.59
2023-03-29T05:58:26.803Z,96209.09
2023-03-29T05:59:32.350Z,96199.56
2023-03-29T06:00:38.765Z,96203.03
2023-03-29T06:01:40.838Z,96206.28
2023-03-29T06:02:45.705Z,96209.78
2023-03-29T06:03:50.495Z,96205.56
2023-03-29T06:04:55.601Z,96211.44
2023-03-29T06:05:59.588Z,96212.19
2023-03-29T06:07:05.336Z,96209.44
2023-03-29T06:08:10.172Z,96203.41
2023-03-29T06:09:17.590Z,96209.06
2023-03-29T06:10:23.716Z,96203.63
2023-03-29T06:11:28.376Z,96203.50
2023-03-29T06:12:31.188Z,96200.03
2023-03-29T06:13:37.354Z,96206.81
2023-03-29T06:14:41.965Z,96207.59
2023-03-29T06:15:45.240Z,96207.53
2023-03-29T06:16:50.334Z,96209.94
2023-03-29T06:17:55.219Z,96208.00
2023-03-29T06:19:00.036Z,96212.34
2023-03-29T06:20:02.621Z,96209.38
2023-03-29T06:21:08.196Z,96207.81
2023-03-29T06:22:14.795Z,96204.09
2023-03-29T06:23:17.282Z,96208.19
2023-03-29T06:24:25.250Z,96212.97
2023-03-29T06:25:30.212Z,96216.53
2023-03-29T06:26:35.442Z,96209.59
2023-03-29T06:27:37.547Z,96218.31
2023-03-29T06:28:42.278Z,96220.25
2023-03-29T06:29:44.292Z,96220.97
2023-03-29T06:30:49.547Z,96218.03
2023-03-29T06:31:51.934Z,96221.06
2023-03-29T06:32:57.987Z,96213.16
2023-03-29T06:34:00.115Z,96223.66
2023-03-29T06:35:05.197Z,96214.75
2023-03-29T06:36:08.331Z,96216.50
2023-03-29T06:37:13.087Z,96217.03
2023-03-29T06:38:15.598Z,96221.03
2023-03-29T06:39:20.211Z,96218.41
2023-03-29T06:40:25.069Z,96209.59
2023-03-29T06:41:29.692Z,96218.72
2023-03-29T06:42:31.794Z,96218.72
2023-03-29T06:43:36.780Z,96218.84
2023-03-29T06:44:41.502Z,96217.88
2023-03-29T06:45:43.877Z,96220.22
2023-03-29T06:46:48.642Z,96216.50
2023-03-29T06:47:53.894Z,96210.13
2023-03-29T06:48:58.653Z,96218.94
2023-03-29T06:50:00.707Z,96211.88
2023-03-29T06:51:05.338Z,96216.63
2023-03-29T06:52:10.034Z,96224.41
2023-03-29T06:53:15.840Z,96218.94
2023-03-29T06:54:20.495Z,96221.88
2023-03-29T06:57:25.837Z,96231.56
2023-03-29T06:58:28.174Z,96224.13
2023-03-29T06:59:33.564Z,96219.31
2023-03-29T07:00:39.596Z,96228.56
2023-03-29T07:01:45.282Z,96224.59
2023-03-29T07:02:47.643Z,96231.94
2023-03-29T07:03:52.480Z,96239.13
2023-03-29T07:04:54.660Z,96235.06
2023-03-29T07:06:04.555Z,96232.22
2023-03-29T07:07:19.949Z,96242.28
2023-03-29T07:08:31.422Z,96234.47
2023-03-29T07:09:36.279Z,96235.00
2023-03-29T07:10:40.236Z,96241.31
2023-03-29T07:11:45.783Z,96241.03
2023-03-29T07:12:54.386Z,96238.19
2023-03-29T07:13:59.023Z,96236.09
2023-03-29T07:15:01.589Z,96237.78
2023-03-29T07:16:06.877Z,96234.25
2023-03-29T07:17:08.956Z,96230.41
2023-03-29T07:18:14.172Z,96233.53
2023-03-29T07:19:16.241Z,96233.31
2023-03-29T07:20:22.314Z,96229.34
2023-03-29T07:21:28.967Z,96227.19
2023-03-29T07:22:31.388Z,96234.69
2023-03-29T07:23:36.172Z,96235.97
2023-03-29T07:24:38.364Z,96237.22
2023-03-29T07:25:43.551Z,96243.19
2023-03-29T07:27:04.268Z,96250.25
2023-03-29T07:28:11.854Z,96252.13
2023-03-29T07:29:16.449Z,96259.03
2023-03-29T07:30:21.392Z,96258.13
2023-03-29T07:31:26.058Z,96258.28
2023-03-29T07:32:30.997Z,96254.72
2023-03-29T07:33:35.937Z,96257.34
2023-03-29T07:34:40.633Z,96262.88
2023-03-29T07:35:44.055Z,96249.34
2023-03-29T07:36:48.720Z,96257.72
2023-03-29T07:37:51.171Z,96250.00
2023-03-29T07:38:56.935Z,96246.59
2023-03-29T07:40:00.248Z,96249.09
2023-03-29T07:41:06.909Z,96246.38
2023-03-29T07:42:11.696Z,96242.22
2023-03-29T07:43:19.075Z,96239.13
2023-03-29T07:44:23.867Z,96238.34
2023-03-29T07:45:30.122Z,96246.97
2023-03-29T07:46:35.832Z,96246.16
2023-03-29T07:47:38.552Z,96251.88
2023-03-29T07:48:43.265Z,96255.69
2023-03-29T07:49:48.076Z,96250.38
2023-03-29T07:50:52.739Z,96259.19
2023-03-29T07:51:57.798Z,96252.66
2023-03-29T07:53:03.552Z,96249.34
2023-03-29T07:54:08.442Z,96254.69
2023-03-29T07:55:12.825Z,96259.72
2023-03-29T07:56:17.433Z,96256.13
2023-03-29T07:57:19.553Z,96261.66
2023-03-29T07:58:27.627Z,96266.75
2023-03-29T07:59:29.724Z,96276.88
2023-03-29T08:00:34.500Z,96272.81
2023-03-29T08:01:41.110Z,96269.25
2023-03-29T08:02:44.182Z,96276.31
2023-03-29T08:03:48.924Z,96276.03
2023-03-29T08:04:53.653Z,96267.06
2023-03-29T08:05:58.485Z,96262.13
2023-03-29T08:07:00.662Z,96270.03
2023-03-29T08:08:05.340Z,96266.19
2023-03-29T08:09:07.368Z,96261.16
2023-03-29T08:10:14.208Z,96257.53
2023-03-29T08:11:16.236Z,96261.34
2023-03-29T08:12:23.149Z,96257.28
2023-03-29T08:13:32.191Z,96261.34
2023-03-29T08:14:34.590Z,96266.47
2023-03-29T08:15:42.240Z,96269.84
2023-03-29T08:16:44.356Z,96250.59
2023-03-29T08:17:49.297Z,96260.81
2023-03-29T08:18:51.559Z,96272.19
2023-03-29T08:19:56.264Z,96267.22
2023-03-29T08:21:01.207Z,96257.97
2023-03-29T08:22:06.192Z,96262.28
2023-03-29T08:23:10.931Z,96258.31
2023-03-29T08:24:15.681Z,96262.47
2023-03-29T08:25:20.486Z,96269.84
2023-03-29T08:26:25.219Z,96266.88
2023-03-29T08:27:27.348Z,96265.66
2023-03-29T08:28:34.709Z,96257.72
2023-03-29T08:29:36.802Z,96258.66
2023-03-29T08:30:41.504Z,96253.19
2023-03-29T08:31:46.279Z,96253.53
2023-03-29T08:32:50.973Z,96254.84
2023-03-29T08:33:57.153Z,96258.41
2023-03-29T08:34:59.495Z,96250.78
2023-03-29T08:36:04.208Z,96259.00
2023-03-29T08:37:06.372Z,96252.69
2023-03-29T08:38:11.429Z,96248.97
2023-03-29T08:39:13.527Z,96257.50
2023-03-29T08:40:22.676Z,96257.59
2023-03-29T08:41:35.728Z,96253.06
2023-03-29T08:43:12.357Z,96251.28
2023-03-29T08:44:38.031Z,96259.94
2023-03-29T08:45:51.613Z,96261.59
2023-03-29T08:47:07.392Z,96261.94
2023-03-29T08:48:24.182Z,96266.84
2023-03-29T08:49:27.381Z,96267.09
2023-03-29T08:50:37.445Z,96266.47
2023-03-29T08:51:45.598Z,96263.25
2023-03-29T08:52:54.201Z,96257.72
2023-03-29T08:54:02.920Z,96273.31
2023-03-29T08:55:13.831Z,96254.66
2023-03-29T08:56:20.945Z,96262.44
2023-03-29T08:57:29.176Z,96263.88
2023-03-29T08:58:33.854Z,96264.81
2023-03-29T08:59:44.071Z,96263.97
2023-03-29T09:00:49.865Z,96254.38
2023-03-29T09:01:58.700Z,96249.03
2023-03-29T09:03:24.627Z,96240.81
2023-03-29T09:04:31.878Z,96248.81
2023-03-29T09:05:38.123Z,96239.47
2023-03-29T09:06:43.313Z,96247.00
2023-03-29T09:07:45.395Z,96250.63
2023-03-29T09:08:52.382Z,96245.94
2023-03-29T09:09:54.630Z,96247.91
2023-03-29T09:11:15.412Z,96244.00
2023-03-29T09:14:29.617Z,96255.88
2023-03-29T09:15:43.028Z,96252.16
2023-03-29T09:16:55.778Z,96245.19
2023-03-29T09:18:04.549Z,96234.06
2023-03-29T09:19:21.636Z,96242.69
2023-03-29T09:20:38.545Z,96246.28
2023-03-29T09:21:49.612Z,96248.88
2023-03-29T09:23:02.420Z,96244.84
2023-03-29T09:24:20.539Z,96249.72
2023-03-29T09:25:27.655Z,96250.78
2023-03-29T09:26:39.814Z,96244.28
2023-03-29T09:27:51.495Z,96248.56
2023-03-29T09:29:00.599Z,96250.97
2023-03-29T09:30:21.516Z,96256.09
2023-03-29T09:31:29.997Z,96254.28
2023-03-29T09:32:41.598Z,96250.25
2023-03-29T09:33:49.875Z,96249.31
2023-03-29T09:34:59.088Z,96237.28
2023-03-29T09:36:08.674Z,96239.56
2023-03-29T09:37:21.524Z,96238.59
2023-03-29T09:38:26.181Z,96235.84
2023-03-29T09:39:31.972Z,96244.41
2023-03-29T09:40:42.888Z,96238.56
2023-03-29T09:41:51.998Z,96238.16
2023-03-29T09:42:58.631Z,96232.13
2023-03-29T09:44:12.748Z,96226.31
2023-03-29T09:45:25.864Z,96219.91
2023-03-29T09:46:36.727Z,96221.41
2023-03-29T09:47:46.157Z,96216.38
2023-03-29T09:48:53.478Z,96224.94
2023-03-29T09:50:02.192Z,96228.00
2023-03-29T09:51:10.056Z,96220.28
2023-03-29T09:52:17.613Z,96221.44
2023-03-29T09:53:24.243Z,96227.47
2023-03-29T09:54:26.652Z,96216.16
2023-03-29T09:55:34.280Z,96215.06
2023-03-29T09:56:39.445Z,96212.28
2023-03-29T09:57:41.948Z,96206.00
2023-03-29T09:58:48.169Z,96211.81
2023-03-29T09:59:51.758Z,96211.19
2023-03-29T10:01:00.028Z,96208.91
2023-03-29T10:02:13.173Z,96201.59
2023-03-29T10:03:22.434Z,96205.03
2023-03-29T10:04:29.177Z,96209.34
2023-03-29T10:05:38.335Z,96209.00
2023-03-29T10:06:43.958Z,96221.75
2023-03-29T10:07:51.296Z,96216.97
2023-03-29T10:08:59.168Z,96223.50
2023-03-29T10:10:01.612Z,96217.38
2023-03-29T10:11:10.688Z,96224.41
2023-03-29T10:12:13.854Z,96225.91
2023-03-29T10:13:23.614Z,96218.97
2023-03-29T10:14:36.341Z,96210.72
2023-03-29T10:15:38.792Z,96207.66
2023-03-29T10:16:46.488Z,96206.06
2023-03-29T10:18:01.447Z,96207.94
2023-03-29T10:19:21.074Z,96210.75
2023-03-29T10:20:25.408Z,96212.66
2023-03-29T10:21:32.491Z,96207.09
2023-03-29T10:22:41.810Z,96208.75
2023-03-29T10:23:44.208Z,96206.97
2023-03-29T10:24:52.255Z,96209.72
2023-03-29T10:25:56.897Z,96222.28
2023-03-29T10:27:04.661Z,96215.50
2023-03-29T10:28:11.484Z,96218.16
2023-03-29T10:29:14.151Z,96217.50
2023-03-29T10:30:27.340Z,96210.72
2023-03-29T10:31:31.678Z,96215.13
2023-03-29T10:32:38.744Z,96219.22
2023-03-29T10:33:43.558Z,96208.53
2023-03-29T10:34:49.734Z,96216.06
2023-03-29T10:35:54.659Z,96215.34
2023-03-29T10:37:02.622Z,96218.91
2023-03-29T10:38:07.895Z,96224.44
2023-03-29T10:39:16.194Z,96223.28
2023-03-29T10:40:22.304Z,96210.69
2023-03-29T10:41:29.917Z,96217.44
2023-03-29T10:42:31.986Z,96204.44
2023-03-29T10:43:41.270Z,96201.84
2023-03-29T10:44:55.020Z,96206.84
2023-03-29T10:46:08.293Z,96207.31
2023-03-29T10:47:19.732Z,96208.84
2023-03-29T10:48:28.389Z,96203.75
2023-03-29T10:49:43.606Z,96193.13
2023-03-29T10:50:53.367Z,96192.38
2023-03-29T10:51:57.962Z,96198.47
2023-03-29T10:53:00.725Z,96204.09
2023-03-29T10:54:06.992Z,96194.31
2023-03-29T10:55:12.866Z,96206.94
2023-03-29T10:56:40.468Z,96206.25
2023-03-29T10:58:01.212Z,96213.47
2023-03-29T10:59:27.637Z,96219.25
2023-03-29T11:00:40.128Z,96220.59
2023-03-29T11:01:51.439Z,96212.78
2023-03-29T11:03:16.504Z,96208.94
2023-03-29T11:04:29.442Z,96207.66
2023-03-29T11:05:41.758Z,96190.50
2023-03-29T11:06:55.981Z,96191.69
2023-03-29T11:08:31.746Z,96193.94
2023-03-29T11:09:51.456Z,96198.84
2023-03-29T11:11:09.043Z,96199.31
2023-03-29T11:12:22.009Z,96198.38
2023-03-29T11:13:35.247Z,96207.06
2023-03-29T11:14:49.124Z,96204.28
2023-03-29T11:16:05.007Z,96206.13
2023-03-29T11:17:24.422Z,96208.00
2023-03-29T11:18:53.314Z,96198.06
2023-03-29T11:20:07.804Z,96200.66
2023-03-29T11:21:24.213Z,96200.75
2023-03-29T11:22:38.564Z,96205.50
2023-03-29T11:23:51.483Z,96201.19
2023-03-29T11:25:16.865Z,96199.22
2023-03-29T11:26:28.197Z,96201.75
2023-03-29T11:27:38.930Z,96186.00
2023-03-29T11:28:53.199Z,96190.03
2023-03-29T11:30:06.800Z,96184.06
2023-03-29T11:31:20.591Z,96187.81
2023-03-29T11:32:29.880Z,96178.88
2023-03-29T11:33:49.793Z,96185.78
2023-03-29T11:35:06.654Z,96186.69
2023-03-29T11:36:20.103Z,96182.22
2023-03-29T11:37:29.119Z,96180.31
2023-03-29T11:38:40.095Z,96180.94
2023-03-29T11:39:57.141Z,96187.16
2023-03-29T11:41:08.653Z,96178.13
2023-03-29T11:42:20.526Z,96184.09
2023-03-29T11:43:32.260Z,96179.56
2023-03-29T11:44:38.681Z,96180.59
2023-03-29T11:45:47.053Z,96167.03
2023-03-29T11:46:57.459Z,96169.66
2023-03-29T11:48:03.026Z,96173.91
2023-03-29T11:49:15.681Z,96167.78
2023-03-29T11:50:22.213Z,96169.63
2023-03-29T11:51:35.138Z,96171.59
2023-03-29T11:52:41.093Z,96169.47
2023-03-29T11:53:56.404Z,96165.06
2023-03-29T11:55:09.279Z,96165.59
2023-03-29T11:56:17.130Z,96174.78
2023-03-29T11:57:27.898Z,96171.69
2023-03-29T11:58:37.388Z,96178.84
2023-03-29T11:59:48.829Z,96170.13
2023-03-29T12:00:57.129Z,96172.13
2023-03-29T12:02:08.415Z,96167.03
2023-03-29T12:03:17.055Z,96176.34
2023-03-29T12:04:25.310Z,96166.31
2023-03-29T12:05:36.183Z,96167.84
2023-03-29T12:06:48.048Z,96160.81
2023-03-29T12:07:57.701Z,96173.06
2023-03-29T12:09:04.161Z,96163.34
2023-03-29T12:10:17.381Z,96171.53
2023-03-29T12:11:30.297Z,96172.25
2023-03-29T12:12:44.507Z,96170.41
2023-03-29T12:13:55.359Z,96171.88
2023-03-29T12:15:07.209Z,96174.16
2023-03-29T12:16:14.674Z,96168.19
2023-03-29T12:17:23.639Z,96164.38
2023-03-29T12:18:33.157Z,96160.66
2023-03-29T12:19:42.802Z,96158.13
2023-03-29T12:20:52.640Z,96144.88
2023-03-29T12:21:58.361Z,96148.41
2023-03-29T12:23:03.571Z,96152.03
2023-03-29T12:24:08.999Z,96147.22
2023-03-29T12:25:21.935Z,96147.41
2023-03-29T12:26:53.908Z,96140.69
2023-03-29T12:28:10.931Z,96140.50
2023-03-29T12:29:28.935Z,96129.16
2023-03-29T12:30:52.487Z,96148.97
2023-03-29T12:32:07.240Z,96143.38
2023-03-29T12:33:32.779Z,96146.72
2023-03-29T12:34:54.624Z,96145.84
2023-03-29T12:36:14.403Z,96148.56
2023-03-29T12:37:37.501Z,96136.53
2023-03-29T12:38:43.605Z,96141.34
2023-03-29T12:39:45.889Z,96140.91
2023-03-29T12:40:57.356Z,96130.91
2023-03-29T12:42:15.524Z,96131.75
2023-03-29T12:43:27.258Z,96125.66
2023-03-29T12:44:33.170Z,96127.59
2023-03-29T12:45:41.615Z,96122.13
2023-03-29T12:46:47.439Z,96118.59
2023-03-29T12:47:54.431Z,96123.53
2023-03-29T12:49:06.025Z,96113.88
2023-03-29T12:50:28.592Z,96125.13
2023-03-29T12:51:35.932Z,96118.44
2023-03-29T12:52:45.098Z,96112.38
2023-03-29T12:53:49.654Z,96117.59
2023-03-29T12:54:58.994Z,96115.41
2023-03-29T12:56:14.015Z,96117.13
2023-03-29T12:57:24.183Z,96122.72
2023-03-29T12:58:39.686Z,96116.13
2023-03-29T12:59:48.543Z,96106.00
2023-03-29T13:01:23.448Z,96105.34
2023-03-29T13:02:47.236Z,96101.41
2023-03-29T13:03:52.238Z,96109.91
2023-03-29T13:05:00.395Z,96109.53
2023-03-29T13:06:05.412Z,96115.53
2023-03-29T13:07:17.481Z,96113.47
2023-03-29T13:08:28.089Z,96109.00
2023-03-29T13:11:37.335Z,96117.19
2023-03-29T13:12:44.822Z,96112.72
2023-03-29T13:13:53.526Z,96110.16
2023-03-29T13:15:00.743Z,96103.22
2023-03-29T13:16:17.941Z,96106.94
2023-03-29T13:17:26.233Z,96107.03
2023-03-29T13:18:39.442Z,96112.13
2023-03-29T13:19:53.441Z,96107.34
2023-03-29T13:21:07.601Z,96108.06
2023-03-29T13:22:25.373Z,96106.31